createdAt,value
2023-05-17T00:00:15.314Z,4.60
2023-05-17T00:02:42.103Z,4.27
2023-05-17T00:05:09.194Z,3.70
2023-05-17T00:07:36.074Z,3.80
2023-05-17T00:10:03.153Z,4.17
2023-05-17T00:12:30.241Z,3.93
2023-05-17T00:14:57.098Z,3.93
2023-05-17T00:17:24.009Z,3.60
2023-05-17T00:19:50.819Z,3.93
2023-05-17T00:22:17.737Z,4.37
2023-05-17T00:24:44.451Z,4.33
2023-05-17T00:27:11.310Z,3.77
2023-05-17T00:29:38.063Z,3.87
2023-05-17T00:32:05.085Z,4.93
2023-05-17T00:34:31.926Z,4.30
2023-05-17T00:36:58.693Z,5.00
2023-05-17T00:39:25.432Z,4.17
2023-05-17T00:41:52.335Z,4.33
2023-05-17T00:44:19.196Z,4.43
2023-05-17T00:46:47.143Z,4.40
2023-05-17T00:49:13.983Z,4.43
2023-05-17T00:51:41.154Z,4.53
2023-05-17T00:54:10.209Z,4.87
2023-05-17T00:56:37.803Z,4.97
2023-05-17T00:59:06.795Z,4.50
2023-05-17T01:01:35.124Z,4.57
2023-05-17T01:04:01.907Z,4.50
2023-05-17T01:06:28.730Z,5.63
2023-05-17T01:08:55.611Z,5.00
2023-05-17T01:11:40.934Z,4.67
2023-05-17T01:14:18.386Z,5.13
2023-05-17T01:16:56.146Z,5.20
2023-05-17T01:19:44.067Z,5.10
2023-05-17T01:22:30.721Z,5.33
2023-05-17T01:25:04.858Z,4.90
2023-05-17T01:27:32.004Z,5.27
2023-05-17T01:29:59.677Z,5.40
2023-05-17T01:32:26.714Z,5.80
2023-05-17T01:34:53.739Z,5.37
2023-05-17T01:37:20.605Z,5.77
2023-05-17T01:39:47.629Z,5.73
2023-05-17T01:42:21.491Z,5.57
2023-05-17T01:44:51.810Z,5.30
2023-05-17T01:47:29.695Z,6.13
2023-05-17T01:49:59.317Z,6.33
2023-05-17T01:52:32.151Z,6.33
2023-05-17T01:55:18.040Z,6.00
2023-05-17T01:57:45.269Z,6.27
2023-05-17T02:00:12.749Z,5.90
2023-05-17T02:02:42.516Z,6.57
2023-05-17T02:05:09.579Z,6.67
2023-05-17T02:07:40.334Z,6.53
2023-05-17T02:10:07.747Z,6.23
2023-05-17T02:12:36.245Z,6.77
2023-05-17T02:15:03.263Z,6.83
2023-05-17T02:17:31.296Z,6.27
2023-05-17T02:19:58.165Z,6.80
2023-05-17T02:22:24.862Z,7.23
2023-05-17T02:24:51.844Z,6.77
2023-05-17T02:27:18.585Z,7.00
2023-05-17T02:29:45.477Z,6.53
2023-05-17T02:32:12.385Z,7.00
2023-05-17T02:34:39.299Z,6.77
2023-05-17T02:37:06.685Z,7.60
2023-05-17T02:39:33.972Z,6.63
2023-05-17T02:42:00.728Z,7.20
2023-05-17T02:44:27.532Z,7.17
2023-05-17T02:46:54.403Z,7.27
2023-05-17T02:49:21.189Z,7.10
2023-05-17T02:51:47.898Z,7.77
2023-05-17T02:54:14.645Z,8.27
2023-05-17T02:56:41.462Z,8.10
2023-05-17T02:59:08.552Z,8.27
2023-05-17T03:01:36.570Z,8.13
2023-05-17T03:04:04.206Z,7.80
2023-05-17T03:06:31.686Z,8.07
2023-05-17T03:08:58.841Z,8.10
2023-05-17T03:11:25.761Z,9.43
2023-05-17T03:13:54.884Z,8.77
2023-05-17T03:16:25.997Z,8.33
2023-05-17T03:18:53.169Z,8.83
2023-05-17T03:21:20.344Z,8.13
2023-05-17T03:23:48.155Z,9.10
2023-05-17T03:26:14.983Z,9.40
2023-05-17T03:28:47.007Z,8.80
2023-05-17T03:31:14.260Z,10.27
2023-05-17T03:33:41.725Z,9.07
2023-05-17T03:36:09.288Z,9.37
2023-05-17T03:38:36.283Z,10.50
2023-05-17T03:41:03.844Z,9.60
2023-05-17T03:43:31.334Z,9.93
2023-05-17T03:45:59.700Z,9.40
2023-05-17T03:48:28.527Z,8.70
2023-05-17T03:50:55.392Z,9.13
2023-05-17T03:53:22.179Z,9.50
2023-05-17T03:55:49.060Z,8.93
2023-05-17T03:58:17.115Z,9.77
2023-05-17T04:00:43.930Z,9.50
2023-05-17T04:03:16.555Z,9.30
2023-05-17T04:05:46.804Z,9.87
2023-05-17T04:08:13.917Z,9.70
2023-05-17T04:10:42.255Z,9.33
2023-05-17T04:13:09.819Z,9.33
2023-05-17T04:15:37.952Z,9.20
2023-05-17T04:18:06.162Z,9.80
2023-05-17T04:20:32.965Z,9.57
2023-05-17T04:23:00.323Z,9.97
2023-05-17T04:25:30.300Z,9.57
2023-05-17T04:27:57.973Z,9.40
2023-05-17T04:30:25.196Z,8.87
2023-05-17T04:32:52.008Z,9.43
2023-05-17T04:35:19.307Z,9.80
2023-05-17T04:37:49.904Z,9.30
2023-05-17T04:40:21.465Z,8.97
2023-05-17T04:42:49.701Z,8.60
2023-05-17T04:45:17.909Z,9.17
2023-05-17T04:47:45.033Z,9.17
2023-05-17T04:50:12.618Z,8.80
2023-05-17T04:52:40.310Z,9.47
2023-05-17T04:55:08.838Z,9.00
2023-05-17T04:57:36.594Z,8.80
2023-05-17T05:00:10.385Z,9.03
2023-05-17T05:02:40.745Z,8.63
2023-05-17T05:05:09.709Z,8.37
2023-05-17T05:07:38.287Z,8.43
2023-05-17T05:10:05.338Z,8.67
2023-05-17T05:12:32.851Z,9.23
2023-05-17T05:15:00.977Z,9.00
2023-05-17T05:17:29.690Z,8.47
2023-05-17T05:19:56.531Z,8.57
2023-05-17T05:22:24.608Z,8.90
2023-05-17T05:24:52.347Z,8.63
2023-05-17T05:27:19.340Z,8.53
2023-05-17T05:29:46.454Z,9.03
2023-05-17T05:32:13.362Z,8.23
2023-05-17T05:34:44.690Z,8.93
2023-05-17T05:37:11.527Z,8.37
2023-05-17T05:39:38.877Z,8.37
2023-05-17T05:42:06.652Z,7.97
2023-05-17T05:44:33.397Z,8.03
2023-05-17T05:47:01.004Z,9.07
2023-05-17T05:49:27.821Z,7.80
2023-05-17T05:51:54.877Z,7.97
2023-05-17T05:54:22.215Z,9.10
2023-05-17T05:56:51.437Z,9.10
2023-05-17T05:59:20.090Z,8.33
2023-05-17T06:01:46.869Z,7.33
2023-05-17T06:04:13.682Z,9.03
2023-05-17T06:06:40.602Z,9.23
2023-05-17T06:09:07.675Z,9.47
2023-05-17T06:11:34.602Z,8.97
2023-05-17T06:14:01.528Z,8.83
2023-05-17T06:16:28.314Z,9.07
2023-05-17T06:18:55.168Z,8.53
2023-05-17T06:21:22.072Z,9.77
2023-05-17T06:23:49.098Z,8.83
2023-05-17T06:26:18.718Z,9.10
2023-05-17T06:28:45.500Z,8.63
2023-05-17T06:31:12.832Z,8.63
2023-05-17T06:33:39.578Z,8.30
2023-05-17T06:36:06.945Z,6.40
2023-05-17T06:38:33.694Z,7.63
2023-05-17T06:41:01.047Z,7.20
2023-05-17T06:43:27.861Z,6.80
2023-05-17T06:45:54.836Z,7.83
2023-05-17T06:48:21.817Z,8.13
2023-05-17T06:50:48.701Z,9.77
2023-05-17T06:53:15.528Z,9.53
2023-05-17T06:55:43.366Z,8.33
2023-05-17T06:58:10.258Z,10.30
2023-05-17T07:00:37.172Z,10.13
2023-05-17T07:03:04.104Z,9.77
2023-05-17T07:05:31.533Z,8.70
2023-05-17T07:07:59.039Z,9.37
2023-05-17T07:10:25.993Z,7.03
2023-05-17T07:12:52.937Z,9.10
2023-05-17T07:15:19.896Z,8.20
2023-05-17T07:17:46.694Z,7.27
2023-05-17T07:20:13.616Z,7.37
2023-05-17T07:22:40.739Z,7.40
2023-05-17T07:25:08.551Z,7.20
2023-05-17T07:27:35.373Z,6.00
2023-05-17T07:30:03.578Z,6.47
2023-05-17T07:32:32.552Z,6.80
2023-05-17T07:34:59.594Z,6.30
2023-05-17T07:37:26.371Z,6.23
2023-05-17T07:39:53.130Z,5.50
2023-05-17T07:42:19.888Z,5.40
2023-05-17T07:44:48.815Z,5.77
2023-05-17T07:47:19.176Z,6.17
2023-05-17T07:49:46.154Z,5.53
2023-05-17T07:52:13.078Z,5.60
2023-05-17T07:54:39.775Z,5.13
2023-05-17T07:57:06.856Z,4.77
2023-05-17T07:59:33.695Z,4.47
2023-05-17T08:02:00.715Z,4.07
2023-05-17T08:04:27.500Z,3.87
2023-05-17T08:06:55.873Z,4.63
2023-05-17T08:09:22.719Z,4.03
2023-05-17T08:11:49.863Z,3.67
2023-05-17T08:14:17.100Z,3.80
2023-05-17T08:16:45.222Z,3.73
2023-05-17T08:19:15.523Z,3.90
2023-05-17T08:21:42.584Z,3.87
2023-05-17T08:24:10.108Z,3.20
2023-05-17T08:26:37.642Z,3.13
2023-05-17T08:29:05.465Z,3.30
2023-05-17T08:31:33.086Z,2.97
2023-05-17T08:33:59.885Z,3.10
2023-05-17T08:36:27.073Z,2.93
2023-05-17T08:38:53.859Z,3.17
2023-05-17T08:41:21.003Z,3.37
2023-05-17T08:43:49.199Z,3.20
2023-05-17T08:46:16.702Z,3.03
2023-05-17T08:48:44.907Z,2.73
2023-05-17T08:51:12.350Z,2.40
2023-05-17T08:53:39.177Z,2.47
2023-05-17T08:56:07.158Z,2.73
2023-05-17T08:58:51.748Z,2.70
2023-05-17T09:01:23.583Z,3.33
2023-05-17T09:03:52.320Z,2.73
2023-05-17T09:06:23.159Z,3.00
2023-05-17T09:08:52.993Z,3.10
2023-05-17T09:11:29.432Z,2.70
2023-05-17T09:14:03.447Z,3.00
2023-05-17T09:16:32.095Z,3.10
2023-05-17T09:18:59.925Z,2.97
2023-05-17T09:21:27.746Z,2.57
2023-05-17T09:24:05.675Z,2.90
2023-05-17T09:26:38.012Z,3.00
2023-05-17T09:29:09.269Z,2.40
2023-05-17T09:31:36.208Z,2.90
2023-05-17T09:34:03.706Z,2.93
2023-05-17T09:36:30.681Z,3.00
2023-05-17T09:39:02.253Z,2.30
2023-05-17T09:41:32.449Z,3.00
2023-05-17T09:44:02.897Z,2.60
2023-05-17T09:46:34.017Z,2.70
2023-05-17T09:49:05.455Z,3.07
2023-05-17T09:51:35.401Z,2.60
2023-05-17T09:54:02.395Z,2.50
2023-05-17T09:56:35.569Z,2.70
2023-05-17T09:59:03.652Z,2.87
2023-05-17T10:01:31.587Z,1.87
2023-05-17T10:04:04.659Z,2.10
2023-05-17T10:06:45.198Z,2.40
2023-05-17T10:09:14.763Z,2.40
2023-05-17T10:11:43.307Z,2.10
2023-05-17T10:14:12.608Z,2.33
2023-05-17T10:16:39.603Z,2.60
2023-05-17T10:19:07.807Z,2.40
2023-05-17T10:21:35.363Z,2.20
2023-05-17T10:24:02.900Z,2.80
2023-05-17T10:26:30.204Z,2.23
2023-05-17T10:29:01.932Z,2.20
2023-05-17T10:31:36.663Z,2.17
2023-05-17T10:34:05.676Z,2.10
2023-05-17T10:36:33.253Z,1.80
2023-05-17T10:39:00.626Z,2.03
2023-05-17T10:41:29.272Z,2.30
2023-05-17T10:43:56.740Z,2.20
2023-05-17T10:46:24.263Z,2.17
2023-05-17T10:48:52.228Z,2.90
2023-05-17T10:51:24.707Z,2.70
2023-05-17T10:54:04.885Z,2.10
2023-05-17T10:56:32.386Z,2.53
2023-05-17T10:59:15.131Z,2.03
2023-05-17T11:01:50.589Z,2.80
2023-05-17T11:04:29.689Z,2.43
2023-05-17T11:07:19.378Z,2.50
2023-05-17T11:09:47.155Z,1.40
2023-05-17T11:12:14.545Z,2.20
2023-05-17T11:14:45.228Z,2.20
2023-05-17T11:17:18.547Z,1.77
2023-05-17T11:19:54.564Z,1.40
2023-05-17T11:22:25.096Z,2.80
2023-05-17T11:24:53.832Z,2.40
2023-05-17T11:27:21.412Z,2.67
2023-05-17T11:29:48.299Z,2.70
2023-05-17T11:32:15.180Z,2.30
2023-05-17T11:34:42.299Z,1.83
2023-05-17T11:37:12.328Z,2.20
2023-05-17T11:39:59.069Z,2.80
2023-05-17T11:42:26.590Z,2.00
2023-05-17T11:44:56.641Z,2.17
2023-05-17T11:47:24.898Z,2.53
2023-05-17T11:49:53.755Z,1.70
2023-05-17T11:52:22.637Z,2.40
2023-05-17T11:54:49.979Z,1.93
2023-05-17T11:57:18.224Z,2.30
2023-05-17T11:59:45.049Z,2.23
2023-05-17T12:02:25.865Z,2.27
2023-05-17T12:04:53.362Z,2.30
2023-05-17T12:07:20.303Z,2.40
2023-05-17T12:09:47.163Z,2.20
2023-05-17T12:12:14.208Z,2.33
2023-05-17T12:14:43.216Z,2.20
2023-05-17T12:17:13.653Z,2.17
2023-05-17T12:19:40.555Z,2.27
2023-05-17T12:22:08.673Z,2.37
2023-05-17T12:24:42.302Z,2.53
2023-05-17T12:27:10.117Z,2.13
2023-05-17T12:29:36.910Z,2.07
2023-05-17T12:32:04.070Z,2.30
2023-05-17T12:34:31.327Z,2.90
2023-05-17T12:36:58.223Z,2.60
2023-05-17T12:39:25.875Z,2.23
2023-05-17T12:41:53.545Z,2.30
2023-05-17T12:44:20.823Z,2.87
2023-05-17T12:46:58.050Z,3.07
2023-05-17T12:49:25.073Z,2.63
2023-05-17T12:51:51.976Z,2.47
2023-05-17T12:54:25.088Z,2.37
2023-05-17T12:56:52.116Z,2.23
2023-05-17T12:59:21.207Z,2.77
2023-05-17T13:01:48.932Z,2.30
2023-05-17T13:04:16.687Z,1.90
2023-05-17T13:06:53.583Z,2.43
2023-05-17T13:09:24.973Z,2.23
2023-05-17T13:11:56.247Z,2.83
2023-05-17T13:14:35.364Z,2.97
2023-05-17T13:17:02.880Z,2.80
2023-05-17T13:19:29.748Z,2.20
2023-05-17T13:21:56.660Z,2.73
2023-05-17T13:24:23.580Z,3.33
2023-05-17T13:26:50.375Z,2.40
2023-05-17T13:29:17.539Z,2.47
2023-05-17T13:31:48.097Z,2.20
2023-05-17T13:34:14.921Z,2.30
2023-05-17T13:36:41.789Z,2.27
2023-05-17T13:39:08.582Z,2.33
2023-05-17T13:41:35.557Z,2.03
2023-05-17T13:44:02.412Z,2.23
2023-05-17T13:46:29.941Z,2.30
2023-05-17T13:48:57.078Z,2.10
2023-05-17T13:51:25.672Z,2.20
2023-05-17T13:53:52.475Z,2.00
2023-05-17T13:56:19.267Z,2.17
2023-05-17T13:58:46.304Z,1.57
2023-05-17T14:01:13.126Z,1.87
2023-05-17T14:03:39.959Z,2.23
2023-05-17T14:06:07.863Z,2.27
2023-05-17T14:08:35.690Z,1.97
2023-05-17T14:11:03.481Z,2.20
2023-05-17T14:13:30.248Z,1.87
2023-05-17T14:15:57.520Z,1.83
2023-05-17T14:18:24.418Z,2.10
2023-05-17T14:20:51.712Z,1.97
2023-05-17T14:23:18.552Z,1.80
2023-05-17T14:25:45.532Z,1.70
2023-05-17T14:28:13.782Z,1.77
2023-05-17T14:30:41.138Z,2.00
2023-05-17T14:33:08.101Z,2.03
2023-05-17T14:35:35.386Z,2.30
2023-05-17T14:38:03.344Z,1.57
2023-05-17T14:40:30.438Z,2.33
2023-05-17T14:42:57.423Z,2.27
2023-05-17T14:45:24.564Z,2.17
2023-05-17T14:47:51.964Z,1.90
2023-05-17T14:50:18.869Z,2.20
2023-05-17T14:52:46.119Z,2.20
2023-05-17T14:55:13.084Z,2.00
2023-05-17T14:57:40.375Z,2.50
2023-05-17T15:00:10.635Z,2.77
2023-05-17T15:02:37.589Z,2.30
2023-05-17T15:05:04.913Z,2.20
2023-05-17T15:07:33.428Z,2.00
2023-05-17T15:13:20.638Z,2.37
2023-05-17T15:15:47.547Z,2.33
2023-05-17T15:18:14.927Z,2.83
2023-05-17T15:20:41.995Z,2.53
2023-05-17T15:23:08.840Z,2.30
2023-05-17T15:29:11.215Z,2.60
2023-05-17T15:31:38.000Z,2.13
2023-05-17T15:34:05.042Z,2.37
2023-05-17T15:36:31.844Z,2.13
2023-05-17T15:38:58.610Z,2.40
2023-05-17T15:41:29.888Z,2.43
2023-05-17T15:43:57.046Z,2.17
2023-05-17T15:46:23.819Z,2.37
2023-05-17T15:48:50.691Z,2.57
2023-05-17T15:51:17.594Z,2.23
2023-05-17T15:53:44.362Z,2.57
2023-05-17T15:56:11.496Z,2.27
2023-05-17T15:58:38.312Z,2.63
2023-05-17T16:01:05.874Z,2.27
2023-05-17T16:03:33.447Z,2.37
2023-05-17T16:06:01.023Z,2.10
2023-05-17T16:08:27.846Z,1.50
2023-05-17T16:10:54.633Z,2.27
2023-05-17T16:13:21.441Z,2.20
2023-05-17T16:15:48.493Z,2.27
2023-05-17T16:18:15.812Z,2.07
2023-05-17T16:20:42.972Z,2.90
2023-05-17T16:23:10.067Z,2.37
2023-05-17T16:25:36.808Z,1.73
2023-05-17T16:28:03.602Z,2.30
2023-05-17T16:30:30.301Z,2.53
2023-05-17T16:32:57.525Z,2.03
2023-05-17T16:35:24.305Z,1.90
2023-05-17T16:37:51.629Z,1.93
2023-05-17T16:40:18.639Z,2.07
2023-05-17T16:42:45.505Z,2.23
2023-05-17T16:45:13.320Z,1.83
2023-05-17T16:47:40.269Z,2.50
2023-05-17T16:50:07.299Z,2.00
2023-05-17T16:52:34.152Z,2.13
2023-05-17T16:55:03.627Z,2.23
2023-05-17T16:57:32.973Z,2.50
2023-05-17T17:00:02.944Z,2.10
2023-05-17T17:02:31.980Z,2.07
2023-05-17T17:04:59.457Z,2.13
2023-05-17T17:07:26.278Z,2.03
2023-05-17T17:09:53.076Z,1.87
2023-05-17T17:12:24.820Z,2.33
2023-05-17T17:14:53.518Z,2.27
2023-05-17T17:17:20.299Z,2.30
2023-05-17T17:19:47.166Z,1.87
2023-05-17T17:22:14.968Z,1.97
2023-05-17T17:24:41.952Z,2.20
2023-05-17T17:27:08.767Z,2.50
2023-05-17T17:29:35.734Z,2.00
2023-05-17T17:32:02.658Z,2.30
2023-05-17T17:34:29.560Z,2.40
2023-05-17T17:36:57.714Z,1.70
2023-05-17T17:39:24.446Z,2.20
2023-05-17T17:41:51.428Z,2.07
2023-05-17T17:44:18.233Z,2.03
2023-05-17T17:46:45.087Z,2.40
2023-05-17T17:49:11.986Z,2.43
2023-05-17T17:51:38.849Z,2.20
2023-05-17T17:54:07.944Z,1.77
2023-05-17T17:56:35.616Z,2.23
2023-05-17T17:59:02.610Z,2.10
2023-05-17T18:01:32.528Z,2.53
2023-05-17T18:03:59.546Z,2.10
2023-05-17T18:06:26.415Z,2.80
2023-05-17T18:08:53.497Z,2.60
2023-05-17T18:11:20.343Z,2.73
2023-05-17T18:13:47.268Z,2.20
2023-05-17T18:16:19.232Z,3.30
2023-05-17T18:18:47.376Z,2.40
2023-05-17T18:21:14.918Z,2.73
2023-05-17T18:23:41.875Z,2.97
2023-05-17T18:26:08.684Z,2.73
2023-05-17T18:28:42.594Z,2.13
2023-05-17T18:31:09.876Z,2.40
2023-05-17T18:33:36.679Z,2.50
2023-05-17T18:36:03.602Z,2.27
2023-05-17T18:38:30.509Z,2.20
2023-05-17T18:40:57.279Z,1.90
2023-05-17T18:43:24.076Z,3.20
2023-05-17T18:45:51.443Z,1.90
2023-05-17T18:48:18.891Z,2.20
2023-05-17T18:50:45.901Z,2.03
2023-05-17T18:53:13.237Z,2.50
2023-05-17T18:55:41.297Z,2.20
2023-05-17T18:58:08.082Z,2.43
2023-05-17T19:00:35.429Z,2.30
2023-05-17T19:03:02.334Z,2.80
2023-05-17T19:05:29.641Z,2.60
2023-05-17T19:07:56.470Z,2.67
2023-05-17T19:10:23.359Z,2.43
2023-05-17T19:12:50.210Z,2.77
2023-05-17T19:15:17.155Z,2.70
2023-05-17T19:17:44.163Z,2.30
2023-05-17T19:20:11.264Z,2.30
2023-05-17T19:22:38.122Z,2.40
2023-05-17T19:25:05.340Z,2.27
2023-05-17T19:27:32.208Z,2.70
2023-05-17T19:29:59.254Z,2.93
2023-05-17T19:32:27.202Z,3.13
2023-05-17T19:34:55.058Z,2.63
2023-05-17T19:37:21.898Z,2.70
2023-05-17T19:39:48.688Z,2.60
2023-05-17T19:42:15.552Z,2.80
2023-05-17T19:44:42.400Z,2.67
2023-05-17T19:47:09.188Z,2.93
2023-05-17T19:49:36.395Z,2.70
2023-05-17T19:52:06.227Z,2.90
2023-05-17T19:54:33.795Z,2.90
2023-05-17T19:57:02.422Z,2.67
2023-05-17T19:59:29.240Z,2.23
2023-05-17T20:01:56.238Z,2.40
2023-05-17T20:04:23.254Z,2.77
2023-05-17T20:06:50.529Z,2.80
2023-05-17T20:09:17.502Z,2.87
2023-05-17T20:11:44.924Z,2.27
2023-05-17T20:14:12.580Z,2.80
2023-05-17T20:16:39.697Z,2.93
2023-05-17T20:19:06.699Z,2.27
2023-05-17T20:21:33.774Z,2.87
2023-05-17T20:24:04.047Z,2.70
2023-05-17T20:26:36.514Z,2.87
2023-05-17T20:29:04.127Z,3.23
2023-05-17T20:31:31.082Z,2.83
2023-05-17T20:33:57.904Z,2.50
2023-05-17T20:36:24.842Z,2.90
2023-05-17T20:38:51.645Z,2.87
2023-05-17T20:41:18.409Z,3.23
2023-05-17T20:43:45.760Z,2.80
2023-05-17T20:46:13.453Z,2.83
2023-05-17T20:48:43.018Z,2.90
2023-05-17T20:51:10.767Z,2.80
2023-05-17T20:53:38.051Z,2.97
2023-05-17T20:56:05.086Z,3.27
2023-05-17T20:58:31.825Z,2.63
2023-05-17T21:01:00.283Z,2.60
2023-05-17T21:03:28.376Z,3.13
2023-05-17T21:05:56.000Z,3.07
2023-05-17T21:08:22.803Z,3.00
2023-05-17T21:10:50.040Z,3.27
2023-05-17T21:13:16.967Z,2.93
2023-05-17T21:15:43.856Z,3.90
2023-05-17T21:18:11.183Z,2.70
2023-05-17T21:20:39.083Z,3.40
2023-05-17T21:23:06.065Z,3.03
2023-05-17T21:25:34.144Z,3.10
2023-05-17T21:28:01.108Z,2.90
2023-05-17T21:30:27.899Z,3.10
2023-05-17T21:32:54.954Z,3.40
2023-05-17T21:35:21.784Z,3.17
2023-05-17T21:37:48.581Z,3.53
2023-05-17T21:40:15.639Z,3.40
2023-05-17T21:42:42.561Z,3.53
2023-05-17T21:45:09.502Z,3.70
2023-05-17T21:47:36.755Z,3.40
2023-05-17T21:50:03.657Z,3.97
2023-05-17T21:52:31.192Z,3.70
2023-05-17T21:54:58.080Z,3.07
2023-05-17T21:57:24.835Z,3.10
2023-05-17T21:59:51.819Z,3.87
2023-05-17T22:02:18.925Z,3.40
2023-05-17T22:04:46.449Z,3.33
2023-05-17T22:07:14.220Z,3.33
2023-05-17T22:09:41.022Z,3.43
2023-05-17T22:12:08.817Z,3.23
2023-05-17T22:14:36.601Z,3.40
2023-05-17T22:17:08.674Z,3.63
2023-05-17T22:19:41.078Z,3.63
2023-05-17T22:22:08.239Z,3.47
2023-05-17T22:24:35.680Z,3.33
2023-05-17T22:27:03.492Z,3.13
2023-05-17T22:29:30.350Z,3.20
2023-05-17T22:31:57.244Z,3.43
2023-05-17T22:34:24.059Z,3.00
2023-05-17T22:36:50.836Z,4.10
2023-05-17T22:39:17.653Z,3.87
2023-05-17T22:41:44.635Z,3.63
2023-05-17T22:44:11.468Z,3.40
2023-05-17T22:46:38.852Z,3.40
2023-05-17T22:49:05.668Z,3.47
2023-05-17T22:51:35.432Z,3.43
2023-05-17T22:54:02.893Z,3.20
2023-05-17T22:56:30.209Z,3.50
2023-05-17T22:58:58.440Z,3.47
2023-05-17T23:01:25.903Z,3.37
2023-05-17T23:03:52.877Z,3.53
2023-05-17T23:06:22.281Z,3.40
2023-05-17T23:08:49.883Z,2.97
2023-05-17T23:11:16.691Z,3.90
2023-05-17T23:13:43.461Z,3.70
2023-05-17T23:16:10.851Z,3.60
2023-05-17T23:18:38.253Z,4.07
2023-05-17T23:21:05.038Z,3.87
2023-05-17T23:23:31.805Z,3.60
2023-05-17T23:25:58.926Z,4.00
2023-05-17T23:28:25.789Z,4.20
2023-05-17T23:30:54.664Z,3.80
2023-05-17T23:33:21.473Z,3.90
2023-05-17T23:35:48.181Z,3.67
2023-05-17T23:38:14.904Z,3.63
2023-05-17T23:40:41.938Z,3.93
2023-05-17T23:43:10.191Z,3.20
2023-05-17T23:45:37.111Z,3.30
2023-05-17T23:48:04.412Z,3.50
2023-05-17T23:50:31.327Z,3.30
2023-05-17T23:52:58.455Z,3.37
2023-05-17T23:55:25.168Z,4.07
2023-05-17T23:57:52.049Z,3.40
